createdAt,value
2022-11-20T00:00:45.814Z,3.8
2022-11-20T00:06:25.483Z,3.6
2022-11-20T00:12:00.550Z,4.6
2022-11-20T00:17:16.718Z,4
2022-11-20T00:22:58.434Z,3.5
2022-11-20T00:28:32.893Z,3.3
2022-11-20T00:34:11.378Z,3.4
2022-11-20T00:39:24.393Z,3.8
2022-11-20T00:45:12.514Z,3.8
2022-11-20T00:50:35.738Z,3.9
2022-11-20T00:55:56.013Z,4
2022-11-20T01:01:33.495Z,4.3
2022-11-20T01:07:12.175Z,4.6
2022-11-20T01:12:46.054Z,4.5
2022-11-20T01:18:31.604Z,4.2
2022-11-20T01:23:51.084Z,4
2022-11-20T01:29:33.258Z,3.9
2022-11-20T01:34:43.524Z,4
2022-11-20T01:40:12.784Z,4
2022-11-20T01:45:55.311Z,3.9
2022-11-20T01:51:26.718Z,3.8
2022-11-20T01:56:56.270Z,4
2022-11-20T02:02:34.448Z,4.2
2022-11-20T02:08:19.012Z,4.2
2022-11-20T02:13:29.382Z,4.2
2022-11-20T02:19:21.156Z,4.2
2022-11-20T02:24:28.122Z,4.1
2022-11-20T02:30:21.838Z,3.9
2022-11-20T02:35:32.069Z,3.9
2022-11-20T02:41:24.063Z,3.9
2022-11-20T02:46:42.915Z,3.9
2022-11-20T02:52:22.953Z,4
2022-11-20T02:57:47.779Z,4.1
2022-11-20T03:03:31.687Z,4.2
2022-11-20T03:08:50.739Z,4.3
2022-11-20T03:14:34.876Z,4.4
2022-11-20T03:20:08.653Z,4.5
2022-11-20T03:25:33.276Z,4.4
2022-11-20T03:31:13.901Z,4.3
2022-11-20T03:36:29.206Z,4.5
2022-11-20T03:42:12.878Z,4.5
2022-11-20T03:47:43.001Z,4.4
2022-11-20T03:53:19.259Z,4.4
2022-11-20T03:58:51.275Z,4.2
2022-11-20T04:04:15.627Z,4.4
2022-11-20T04:09:45.974Z,4.5
2022-11-20T04:15:09.895Z,4.5
2022-11-20T04:20:47.701Z,4.6
2022-11-20T04:26:31.792Z,4.6
2022-11-20T04:31:50.103Z,4.4
2022-11-20T04:37:36.028Z,4.4
2022-11-20T04:42:54.566Z,4.5
2022-11-20T04:48:39.090Z,4.5
2022-11-20T04:54:04.015Z,4.7
2022-11-20T04:59:43.124Z,4.6
2022-11-20T05:04:56.250Z,4.6
2022-11-20T05:10:53.515Z,4.6
2022-11-20T05:16:06.896Z,4.5
2022-11-20T05:21:49.594Z,4.7
2022-11-20T05:27:08.350Z,4.8
2022-11-20T05:32:36.892Z,4.7
2022-11-20T05:38:13.172Z,4.8
2022-11-20T05:44:02.309Z,4.9
2022-11-20T05:49:22.473Z,5
2022-11-20T05:54:56.941Z,5.1
2022-11-20T06:00:36.184Z,5.1
2022-11-20T06:05:54.222Z,5.1
2022-11-20T06:11:25.459Z,5
2022-11-20T06:16:58.096Z,5.1
2022-11-20T06:22:40.177Z,5
2022-11-20T06:28:01.744Z,5
2022-11-20T06:33:31.739Z,4.9
2022-11-20T06:39:26.167Z,4.9
2022-11-20T06:44:52.258Z,4.8
2022-11-20T06:50:14.848Z,4.9
2022-11-20T06:55:51.247Z,4.9
2022-11-20T07:01:31.896Z,5.1
2022-11-20T07:06:54.418Z,5.1
2022-11-20T07:12:12.793Z,5.1
2022-11-20T07:17:52.517Z,5.2
2022-11-20T07:23:40.216Z,5.3
2022-11-20T07:28:48.363Z,5
2022-11-20T07:34:26.198Z,5.1
2022-11-20T07:40:14.592Z,5.2
2022-11-20T07:45:34.577Z,5.2
2022-11-20T07:51:01.603Z,5.1
2022-11-20T07:56:45.352Z,5
2022-11-20T08:02:09.754Z,5.1
2022-11-20T08:07:40.860Z,5.2
2022-11-20T08:13:10.832Z,5.2
2022-11-20T08:18:46.407Z,5.3
2022-11-20T08:24:12.559Z,5.4
2022-11-20T08:30:00.664Z,5.4
2022-11-20T08:35:15.337Z,5.6
2022-11-20T08:40:51.161Z,6.1
2022-11-20T08:46:29.608Z,6.6
2022-11-20T08:52:06.246Z,6.6
2022-11-20T08:57:51.323Z,7
2022-11-20T09:02:59.599Z,7.1
2022-11-20T09:08:45.123Z,7.2
2022-11-20T09:14:30.651Z,7.3
2022-11-20T09:19:52.085Z,7.6
2022-11-20T09:25:24.849Z,7.9
2022-11-20T09:30:40.958Z,8.8
2022-11-20T09:36:15.408Z,8.7
2022-11-20T09:41:50.338Z,8.6
2022-11-20T09:47:25.929Z,8.5
2022-11-20T09:53:02.868Z,9.5
2022-11-20T09:58:32.084Z,9.8
2022-11-20T10:04:23.120Z,9.9
2022-11-20T10:09:55.737Z,10.3
2022-11-20T10:15:11.101Z,9.7
2022-11-20T10:20:56.750Z,9.9
2022-11-20T10:26:40.862Z,9.2
2022-11-20T10:32:00.815Z,9.4
2022-11-20T10:37:45.439Z,9.2
2022-11-20T10:43:01.272Z,8.2
2022-11-20T10:48:54.421Z,8.6
2022-11-20T10:54:27.705Z,9
2022-11-20T10:59:44.651Z,8.6
2022-11-20T11:05:18.444Z,8.5
2022-11-20T11:10:54.202Z,8.2
2022-11-20T11:16:20.362Z,8.3
2022-11-20T11:22:07.844Z,8.3
2022-11-20T11:27:44.069Z,8.6
2022-11-20T11:33:14.123Z,8.7
2022-11-20T11:38:46.727Z,8.8
2022-11-20T11:44:20.384Z,9.3
2022-11-20T11:49:59.441Z,9.6
2022-11-20T11:55:14.663Z,9.9
2022-11-20T12:00:44.686Z,9.2
2022-11-20T12:06:25.475Z,9.2
2022-11-20T12:11:56.739Z,8.8
2022-11-20T12:17:28.506Z,8.6
2022-11-20T12:22:59.976Z,8.6
2022-11-20T12:28:58.007Z,8.8
2022-11-20T12:34:27.824Z,8.3
2022-11-20T12:39:56.273Z,8.3
2022-11-20T12:45:35.172Z,8.1
2022-11-20T12:51:18.142Z,9.4
2022-11-20T12:56:46.683Z,9.5
2022-11-20T13:01:58.976Z,10
2022-11-20T13:07:36.001Z,10.1
2022-11-20T13:13:25.298Z,10.2
2022-11-20T13:18:56.728Z,10
2022-11-20T13:24:18.645Z,9.4
2022-11-20T13:29:41.551Z,9.9
2022-11-20T13:35:19.975Z,9.9
2022-11-20T13:41:01.497Z,9.7
2022-11-20T13:46:48.980Z,9.6
2022-11-20T13:51:59.386Z,9.8
2022-11-20T13:57:31.069Z,9.8
2022-11-20T14:03:51.054Z,9.6
2022-11-20T14:08:56.046Z,9.9
2022-11-20T14:14:30.130Z,9.8
2022-11-20T14:20:03.384Z,10
2022-11-20T14:25:18.329Z,10
2022-11-20T14:31:09.334Z,9.8
2022-11-20T14:36:24.813Z,9.3
2022-11-20T14:42:03.213Z,9.3
2022-11-20T14:47:32.116Z,8.8
2022-11-20T14:53:16.046Z,8.5
2022-11-20T14:58:50.187Z,8.3
2022-11-20T15:04:09.992Z,8.4
2022-11-20T15:09:58.432Z,8.3
2022-11-20T15:15:35.161Z,8.2
2022-11-20T15:20:46.286Z,8.2
2022-11-20T15:26:45.740Z,8.2
2022-11-20T15:32:10.475Z,8.1
2022-11-20T15:37:31.536Z,8.1
2022-11-20T15:43:18.413Z,8
2022-11-20T15:48:46.324Z,8
2022-11-20T15:54:25.401Z,7.9
2022-11-20T15:59:36.639Z,7.8
2022-11-20T16:05:34.184Z,7.9
2022-11-20T16:10:42.443Z,7.9
2022-11-20T16:16:25.506Z,7.9
2022-11-20T16:22:12.193Z,7.9
2022-11-20T16:27:43.991Z,7.9
2022-11-20T16:33:02.357Z,7.9
2022-11-20T16:38:38.687Z,8
2022-11-20T16:44:00.072Z,7.9
2022-11-20T16:49:43.262Z,7.9
2022-11-20T16:55:30.439Z,7.8
2022-11-20T17:00:47.023Z,7.8
2022-11-20T17:06:33.629Z,7.8
2022-11-20T17:12:02.776Z,7.8
2022-11-20T17:17:45.134Z,7.7
2022-11-20T17:23:03.804Z,7.7
2022-11-20T17:28:27.621Z,7.6
2022-11-20T17:34:13.158Z,7.6
2022-11-20T17:39:30.659Z,7.6
2022-11-20T17:45:21.593Z,7.6
2022-11-20T17:50:39.105Z,7.7
2022-11-20T17:56:08.948Z,7.8
2022-11-20T18:01:46.743Z,7.9
2022-11-20T18:07:41.719Z,7.6
2022-11-20T18:12:54.292Z,7.1
2022-11-20T18:18:24.204Z,6.1
2022-11-20T18:23:57.199Z,5.8
2022-11-20T18:29:53.875Z,5.6
2022-11-20T18:35:28.680Z,5.7
2022-11-20T18:40:49.296Z,5.7
2022-11-20T18:46:17.132Z,6
2022-11-20T18:51:40.284Z,5.9
2022-11-20T18:57:39.300Z,5.5
2022-11-20T19:02:58.500Z,4.7
2022-11-20T19:08:41.461Z,4.5
2022-11-20T19:14:16.559Z,4.6
2022-11-20T19:19:32.757Z,4.7
2022-11-20T19:25:17.360Z,4.7
2022-11-20T19:30:52.523Z,4.7
2022-11-20T19:36:11.550Z,4.8
2022-11-20T19:41:35.785Z,4.9
2022-11-20T19:47:11.655Z,4.9
2022-11-20T19:52:48.604Z,4.7
2022-11-20T19:58:40.170Z,4.6
2022-11-20T20:04:09.505Z,4.7
2022-11-20T20:09:42.193Z,4.8
2022-11-20T20:14:52.502Z,4.8
2022-11-20T20:20:36.388Z,4.9
2022-11-20T20:26:09.781Z,4.9
2022-11-20T20:31:57.886Z,5
2022-11-20T20:37:25.698Z,5.1
2022-11-20T20:42:46.516Z,5.2
2022-11-20T20:48:20.827Z,5.3
2022-11-20T20:53:49.870Z,5.3
2022-11-20T20:59:26.068Z,5.3
2022-11-20T21:04:52.787Z,5.4
2022-11-20T21:10:43.696Z,5.4
2022-11-20T21:16:22.174Z,5.5
2022-11-20T21:21:53.141Z,5.5
2022-11-20T21:27:24.021Z,5.7
2022-11-20T21:32:56.326Z,5.7
2022-11-20T21:38:36.341Z,5.7
2022-11-20T21:44:29.933Z,5.9
2022-11-20T21:49:21.671Z,6
2022-11-20T21:55:04.694Z,5.9
2022-11-20T22:00:37.770Z,5.7
2022-11-20T22:06:08.207Z,5.9
2022-11-20T22:11:29.471Z,5.9
2022-11-20T22:17:17.750Z,5.8
2022-11-20T22:22:47.871Z,5.7
2022-11-20T22:28:19.043Z,5.7
2022-11-20T22:34:05.545Z,5.7
2022-11-20T22:39:28.762Z,5.7
2022-11-20T22:44:52.632Z,5.8
2022-11-20T22:50:33.194Z,5.8
2022-11-20T22:56:17.160Z,5.7
2022-11-20T23:01:28.416Z,5.7
2022-11-20T23:07:13.690Z,5.7
2022-11-20T23:12:31.226Z,5.7
2022-11-20T23:18:10.417Z,5.7
2022-11-20T23:24:01.674Z,5.6
2022-11-20T23:29:32.605Z,5.7
2022-11-20T23:34:50.014Z,5.8
2022-11-20T23:40:31.071Z,5.8
2022-11-20T23:46:06.483Z,6
2022-11-20T23:51:40.319Z,6
2022-11-20T23:57:01.995Z,6
